Time;durP1;ratioP1;P1;durP2;ratioP2;P2;SDS_P1;SDS_P2;PMS_P1;PMS_P2;Temp;Humidity;BMP_temperature;BMP_pressure;BME280_temperature;BME280_humidity;BME280_pressure;Samples;Min_cycle;Max_cycle;Signal;HPM_P1;HPM_P2
2022/08/09 00:00:09;;;;;;;1.83;1.40;;;;;;;25.48;33.58;100212.44;4154878;28;20298;-29
2022/08/09 00:02:12;;;;;;;4.15;1.42;;;;;;;26.26;32.49;100202.41;4155095;28;20228;-29
2022/08/09 00:04:16;;;;;;;2.88;1.35;;;;;;;25.48;33.53;100223.31;4155168;28;20239;-29
2022/08/09 00:06:35;;;;;;;2.78;1.40;;;;;;;25.53;33.62;100213.34;4155663;28;20237;-29
2022/08/09 00:08:38;;;;;;;1.67;1.25;;;;;;;25.79;33.12;100209.09;4160416;28;20639;-29
2022/08/09 00:10:40;;;;;;;1.40;1.30;;;;;;;25.92;32.83;100213.38;4157500;28;20701;-30
2022/08/09 00:12:42;;;;;;;1.45;1.30;;;;;;;25.70;33.51;100212.50;4155369;28;20241;-30
2022/08/09 00:14:46;;;;;;;2.55;1.35;;;;;;;26.00;33.23;100219.50;4158369;28;20240;-29
2022/08/09 00:16:48;;;;;;;1.85;1.30;;;;;;;26.09;33.17;100221.56;4155428;28;20710;-29
2022/08/09 00:18:50;;;;;;;3.53;1.55;;;;;;;26.16;33.00;100219.47;4155147;28;20326;-29
2022/08/09 00:20:54;;;;;;;1.55;1.42;;;;;;;25.23;34.00;100213.63;4148666;28;20233;-29
2022/08/09 00:22:55;;;;;;;4.25;1.90;;;;;;;25.91;33.40;100205.47;4158284;28;20248;-29
2022/08/09 00:25:06;;;;;;;4.97;1.50;;;;;;;25.14;34.19;100217.78;4152430;28;20228;-29
2022/08/09 00:27:13;;;;;;;2.90;1.40;;;;;;;25.21;34.28;100210.31;4154768;28;20268;-29
2022/08/09 00:29:14;;;;;;;5.05;1.40;;;;;;;24.96;34.60;100211.50;4157022;28;20232;-29
2022/08/09 00:31:36;;;;;;;2.22;1.35;;;;;;;24.93;34.25;100222.88;4154192;28;20255;-29
2022/08/09 00:33:58;;;;;;;4.05;1.40;;;;;;;25.13;34.33;100216.16;4146622;28;20229;-29
2022/08/09 00:36:03;;;;;;;2.72;1.65;;;;;;;24.64;34.59;100214.66;4156180;28;20294;-29
2022/08/09 00:38:05;;;;;;;1.30;1.20;;;;;;;25.20;34.32;100195.88;4158918;28;20270;-29
2022/08/09 00:40:07;;;;;;;8.15;1.40;;;;;;;24.90;34.32;100209.75;4158993;28;20690;-29
2022/08/09 00:42:17;;;;;;;3.17;1.60;;;;;;;24.82;34.74;100205.53;4157295;28;20315;-29
2022/08/09 00:44:39;;;;;;;1.50;1.35;;;;;;;25.33;34.23;100199.38;4151878;28;20567;-29
2022/08/09 00:46:42;;;;;;;3.45;1.65;;;;;;;24.63;34.89;100212.19;4156529;28;20705;-29
2022/08/09 00:49:02;;;;;;;2.47;1.23;;;;;;;24.98;34.35;100211.25;4149902;28;20237;-29
2022/08/09 00:51:07;;;;;;;3.38;1.40;;;;;;;25.19;33.97;100210.56;4158250;28;20264;-29
2022/08/09 00:53:13;;;;;;;1.50;1.30;;;;;;;24.63;34.72;100204.88;4160092;28;20282;-28
2022/08/09 00:55:15;;;;;;;1.67;1.30;;;;;;;24.62;34.86;100199.69;4157871;28;20231;-29
2022/08/09 00:57:37;;;;;;;3.13;1.33;;;;;;;24.56;34.94;100204.16;4153339;28;20869;-29
2022/08/09 00:59:42;;;;;;;5.15;1.70;;;;;;;24.92;34.56;100199.47;4153678;28;20244;-29
2022/08/09 01:01:50;;;;;;;1.38;1.15;;;;;;;24.51;35.13;100209.50;4146536;28;20289;-29
2022/08/09 01:04:17;;;;;;;5.68;1.70;;;;;;;24.82;34.70;100200.09;4154013;28;20283;-29
2022/08/09 01:06:46;;;;;;;2.30;1.45;;;;;;;24.44;35.29;100193.34;4151805;28;20240;-29
2022/08/09 01:09:34;;;;;;;2.47;1.10;;;;;;;24.44;35.20;100190.63;4155427;28;20657;-29
2022/08/09 01:11:49;;;;;;;2.88;1.58;;;;;;;24.31;35.43;100191.72;4148880;28;20235;-29
2022/08/09 01:14:01;;;;;;;3.67;1.30;;;;;;;24.20;35.55;100180.88;4155493;28;20281;-29
2022/08/09 01:16:04;;;;;;;3.45;1.65;;;;;;;23.91;35.49;100206.03;4154210;28;20243;-29
2022/08/09 01:18:09;;;;;;;1.60;1.30;;;;;;;24.62;34.85;100188.81;4155739;28;20221;-29
2022/08/09 01:20:48;;;;;;;3.13;1.75;;;;;;;25.11;34.33;100202.78;4146612;28;20705;-29
2022/08/09 01:23:01;;;;;;;3.80;2.33;;;;;;;24.10;35.75;100195.84;4152986;28;20282;-29
2022/08/09 01:25:38;;;;;;;2.22;1.52;;;;;;;24.65;34.78;100197.31;4150060;28;20232;-29
2022/08/09 01:27:47;;;;;;;2.33;1.42;;;;;;;24.60;35.19;100201.81;4156840;28;20724;-29
2022/08/09 01:29:57;;;;;;;2.47;1.50;;;;;;;24.44;35.09;100197.94;4148690;28;20232;-29
2022/08/09 01:32:04;;;;;;;1.27;1.17;;;;;;;24.09;35.96;100196.94;4153844;28;20232;-29
2022/08/09 01:34:30;;;;;;;6.10;1.70;;;;;;;24.84;34.56;100202.59;4157801;28;22203;-29
2022/08/09 01:36:33;;;;;;;3.45;1.42;;;;;;;24.12;35.47;100201.06;4152595;28;20236;-29
2022/08/09 01:38:39;;;;;;;1.98;1.60;;;;;;;24.88;34.93;100203.72;4151962;28;20649;-29
2022/08/09 01:40:54;;;;;;;2.22;1.60;;;;;;;24.63;34.67;100210.31;4150380;28;20236;-29
2022/08/09 01:43:07;;;;;;;2.08;1.20;;;;;;;24.76;35.01;100205.66;4154163;28;20252;-29
2022/08/09 01:45:10;;;;;;;1.50;1.40;;;;;;;23.83;35.93;100211.81;4153604;28;20611;-29
2022/08/09 01:47:12;;;;;;;1.77;1.50;;;;;;;24.22;35.93;100195.88;4153733;28;20237;-29
2022/08/09 01:49:20;;;;;;;7.22;1.90;;;;;;;24.43;35.25;100199.84;4155237;28;20722;-28
2022/08/09 01:51:26;;;;;;;5.95;1.67;;;;;;;23.86;35.89;100214.06;4149458;28;20241;-30
2022/08/09 01:53:35;;;;;;;5.03;1.90;;;;;;;24.43;35.16;100207.16;4153442;28;20286;-30
2022/08/09 01:55:44;;;;;;;2.65;1.58;;;;;;;24.10;35.80;100206.72;4152715;28;20926;-30
2022/08/09 01:57:49;;;;;;;7.18;1.40;;;;;;;24.00;35.93;100220.09;4147289;28;20241;-29
2022/08/09 01:59:58;;;;;;;2.80;1.50;;;;;;;23.70;36.58;100204.72;4155162;28;20308;-29
2022/08/09 02:02:25;;;;;;;2.55;1.70;;;;;;;23.51;36.57;100220.25;4152050;28;20686;-29
2022/08/09 02:04:33;;;;;;;3.17;1.38;;;;;;;23.98;35.98;100205.09;4154814;28;20256;-29
2022/08/09 02:07:25;;;;;;;1.65;1.55;;;;;;;24.22;35.57;100223.03;4153691;28;20245;-29
2022/08/09 02:09:03;;;;;;;2.55;1.42;;;;;;;24.15;35.77;100240.53;4153012;28;20233;-29
2022/08/09 02:11:08;;;;;;;1.65;1.50;;;;;;;23.00;37.20;100240.66;4156450;28;20228;-29
2022/08/09 02:13:20;;;;;;;1.98;1.60;;;;;;;23.46;36.53;100227.47;4155336;28;20233;-29
2022/08/09 02:15:39;;;;;;;9.98;1.70;;;;;;;23.56;36.67;100225.84;4151245;28;20228;-29
2022/08/09 02:17:53;;;;;;;3.17;1.73;;;;;;;23.32;36.69;100237.69;4151298;28;20232;-29
2022/08/09 02:20:11;;;;;;;2.05;1.60;;;;;;;23.80;36.31;100217.72;4146486;28;20224;-29
2022/08/09 02:22:38;;;;;;;3.17;1.75;;;;;;;23.80;36.05;100220.44;4156507;28;21099;-29
2022/08/09 02:24:44;;;;;;;5.50;1.67;;;;;;;23.28;36.91;100239.19;4149869;28;20268;-29
2022/08/09 02:26:56;;;;;;;3.72;1.73;;;;;;;23.70;36.49;100215.59;4147543;28;20879;-29
2022/08/09 02:29:05;;;;;;;3.47;1.80;;;;;;;22.97;37.45;100224.84;4156811;28;20585;-29
2022/08/09 02:31:12;;;;;;;5.57;1.50;;;;;;;23.22;37.14;100218.44;4155742;28;20271;-29
2022/08/09 02:33:22;;;;;;;2.60;1.80;;;;;;;23.71;36.31;100211.81;4155146;28;20241;-29
2022/08/09 02:35:46;;;;;;;2.43;1.60;;;;;;;23.66;36.25;100236.13;4150152;28;20228;-29
2022/08/09 02:38:05;;;;;;;1.75;1.60;;;;;;;23.37;36.93;100224.25;4144431;28;20508;-30
2022/08/09 02:40:12;;;;;;;2.03;1.70;;;;;;;23.53;36.45;100241.75;4152848;28;20585;-30
2022/08/09 02:42:24;;;;;;;2.70;1.97;;;;;;;23.25;36.73;100247.78;4154902;28;20226;-30
2022/08/09 02:44:39;;;;;;;3.72;1.80;;;;;;;22.93;37.10;100248.03;4154215;28;20297;-30
2022/08/09 02:46:43;;;;;;;3.28;1.60;;;;;;;23.20;37.06;100234.94;4155671;28;20252;-29
2022/08/09 02:48:47;;;;;;;2.72;1.85;;;;;;;23.65;36.29;100229.03;4148299;28;20286;-29
2022/08/09 02:50:56;;;;;;;3.37;1.60;;;;;;;23.78;36.49;100217.13;4154894;28;20236;-30
2022/08/09 02:53:07;;;;;;;2.13;1.80;;;;;;;23.72;36.68;100227.06;4148258;28;20582;-28
2022/08/09 02:55:10;;;;;;;3.80;1.77;;;;;;;22.98;37.42;100242.78;4155425;28;20228;-29
2022/08/09 02:57:23;;;;;;;3.45;1.77;;;;;;;23.62;36.49;100236.81;4145632;28;20228;-29
2022/08/09 02:59:26;;;;;;;5.80;2.08;;;;;;;23.13;37.06;100259.47;4151532;28;20233;-29
2022/08/09 03:01:39;;;;;;;1.98;1.48;;;;;;;23.15;37.26;100251.91;4152841;28;20725;-29
2022/08/09 03:04:03;;;;;;;3.93;1.53;;;;;;;23.70;36.64;100234.59;4152347;28;20229;-29
2022/08/09 03:06:21;;;;;;;1.92;1.30;;;;;;;23.18;36.99;100251.47;4151420;28;20760;-29
2022/08/09 03:08:28;;;;;;;2.23;1.77;;;;;;;23.19;37.19;100242.25;4153568;28;20225;-29
2022/08/09 03:10:33;;;;;;;8.13;1.70;;;;;;;23.39;36.89;100236.53;4156542;28;20331;-28
2022/08/09 03:12:37;;;;;;;3.55;1.90;;;;;;;23.44;36.97;100238.53;4152987;28;20725;-29
2022/08/09 03:14:41;;;;;;;1.70;1.60;;;;;;;22.46;38.41;100243.19;4152934;28;20237;-29
2022/08/09 03:16:45;;;;;;;1.95;1.60;;;;;;;22.68;38.23;100223.75;4151867;28;20851;-30
2022/08/09 03:18:49;;;;;;;1.77;1.50;;;;;;;22.76;38.04;100228.81;4152091;28;20237;-30
2022/08/09 03:20:58;;;;;;;2.77;1.67;;;;;;;23.41;36.98;100227.34;4152303;28;20255;-30
2022/08/09 03:23:00;;;;;;;4.30;1.88;;;;;;;22.94;37.70;100228.00;4153457;28;20294;-29
2022/08/09 03:25:22;;;;;;;2.22;1.80;;;;;;;22.63;38.16;100233.38;4156184;28;20613;-29
2022/08/09 03:27:47;;;;;;;1.95;1.60;;;;;;;22.60;38.18;100224.88;4150437;28;20236;-30
2022/08/09 03:29:51;;;;;;;2.90;1.60;;;;;;;22.69;38.18;100212.66;4153379;28;20239;-30
2022/08/09 03:32:03;;;;;;;1.87;1.60;;;;;;;22.91;38.01;100201.31;4154492;28;21035;-29
2022/08/09 03:34:10;;;;;;;1.67;1.50;;;;;;;22.66;38.32;100215.84;4151405;28;20703;-29
2022/08/09 03:36:14;;;;;;;3.23;1.60;;;;;;;23.06;37.66;100209.88;4152271;28;20228;-29
2022/08/09 03:38:17;;;;;;;2.80;1.90;;;;;;;22.62;38.44;100228.16;4151396;28;20279;-29
2022/08/09 03:40:30;;;;;;;3.27;1.60;;;;;;;22.76;37.94;100237.81;4146085;28;20233;-29
2022/08/09 03:42:33;;;;;;;5.50;1.97;;;;;;;22.49;38.54;100240.03;4151603;28;20225;-29
2022/08/09 03:44:35;;;;;;;5.83;1.70;;;;;;;22.95;37.75;100240.53;4156733;28;20287;-29
2022/08/09 03:46:37;;;;;;;3.60;2.10;;;;;;;23.31;37.42;100236.84;4150028;28;20272;-29
2022/08/09 03:48:40;;;;;;;2.80;1.80;;;;;;;23.00;37.83;100243.38;4153128;28;20246;-29
2022/08/09 03:50:54;;;;;;;2.70;2.00;;;;;;;23.11;37.72;100247.16;4153533;28;20942;-29
2022/08/09 03:53:00;;;;;;;3.47;1.33;;;;;;;22.82;38.21;100247.72;4148701;28;20233;-29
2022/08/09 03:55:06;;;;;;;4.80;1.77;;;;;;;22.81;38.14;100240.66;4157816;28;20832;-28
2022/08/09 03:57:12;;;;;;;5.50;1.90;;;;;;;22.98;38.01;100245.50;4147271;28;20236;-28
2022/08/09 03:59:21;;;;;;;2.63;1.67;;;;;;;22.86;38.23;100247.25;4150452;28;20639;-28
2022/08/09 04:01:29;;;;;;;2.90;1.87;;;;;;;22.95;38.18;100254.91;4153303;28;20236;-30
2022/08/09 04:03:33;;;;;;;3.17;2.23;;;;;;;22.36;39.03;100262.66;4152158;28;20312;-28
2022/08/09 04:05:56;;;;;;;2.83;1.70;;;;;;;22.23;38.99;100273.59;4145112;28;20236;-28
2022/08/09 04:07:58;;;;;;;3.00;1.90;;;;;;;22.54;38.53;100258.28;4154565;28;20245;-28
2022/08/09 04:09:59;;;;;;;2.47;1.60;;;;;;;22.78;38.36;100256.56;4156855;28;20236;-28
2022/08/09 04:12:10;;;;;;;2.53;1.90;;;;;;;23.10;38.00;100246.34;4155341;28;20860;-29
2022/08/09 04:14:31;;;;;;;3.70;1.87;;;;;;;22.59;38.65;100264.69;4155083;28;20302;-29
2022/08/09 04:16:53;;;;;;;3.50;2.00;;;;;;;21.94;39.47;100275.94;4154303;28;20771;-29
2022/08/09 04:18:57;;;;;;;3.30;2.00;;;;;;;22.19;39.29;100266.97;4159578;28;20307;-30
2022/08/09 04:21:02;;;;;;;3.10;1.80;;;;;;;22.05;39.40;100279.81;4157187;28;20232;-28
2022/08/09 04:23:04;;;;;;;3.23;1.87;;;;;;;21.88;39.92;100260.59;4153496;28;20645;-28
2022/08/09 04:25:17;;;;;;;3.07;2.10;;;;;;;22.57;38.67;100252.41;4153291;28;20758;-28
2022/08/09 04:27:19;;;;;;;5.90;2.17;;;;;;;22.30;38.79;100282.50;4152888;28;20248;-29
2022/08/09 04:29:22;;;;;;;3.23;2.27;;;;;;;22.08;39.43;100272.09;4152298;28;20225;-28
2022/08/09 04:31:30;;;;;;;4.47;2.00;;;;;;;21.50;40.07;100293.97;4153134;28;20236;-28
2022/08/09 04:33:47;;;;;;;5.10;2.53;;;;;;;21.95;39.67;100269.50;4148097;28;20236;-29
2022/08/09 04:35:57;;;;;;;6.13;2.00;;;;;;;22.17;39.38;100275.34;4152240;28;20814;-29
2022/08/09 04:37:59;;;;;;;2.40;2.00;;;;;;;21.63;40.48;100271.41;4158940;28;20229;-28
2022/08/09 04:40:06;;;;;;;2.30;2.07;;;;;;;22.22;39.40;100266.50;4159022;28;20233;-29
2022/08/09 04:42:08;;;;;;;2.60;2.00;;;;;;;21.95;39.99;100272.22;4152301;28;20223;-28
2022/08/09 04:44:16;;;;;;;4.03;2.37;;;;;;;21.99;39.82;100286.94;4157944;28;20233;-29
2022/08/09 04:46:18;;;;;;;1.90;1.70;;;;;;;22.61;38.91;100276.13;4159081;28;20885;-28
2022/08/09 04:48:39;;;;;;;3.37;1.83;;;;;;;22.27;39.54;100280.22;4140818;28;20245;-29
2022/08/09 04:50:57;;;;;;;5.13;1.93;;;;;;;22.42;39.28;100305.13;4149503;28;20233;-28
2022/08/09 04:52:59;;;;;;;2.70;2.10;;;;;;;22.56;39.14;100289.53;4149393;28;20263;-28
2022/08/09 04:55:01;;;;;;;2.27;1.83;;;;;;;22.03;39.80;100309.81;4157883;28;20247;-28
2022/08/09 04:57:10;;;;;;;3.30;2.20;;;;;;;21.69;40.46;100300.31;4153145;28;20605;-28
2022/08/09 04:59:12;;;;;;;7.10;2.23;;;;;;;21.72;40.32;100289.88;4154950;28;20674;-29
2022/08/09 05:01:16;;;;;;;2.90;1.70;;;;;;;22.12;39.85;100288.72;4154646;28;20303;-28
2022/08/09 05:03:19;;;;;;;3.10;1.80;;;;;;;21.75;40.41;100294.03;4158647;28;21003;-28
2022/08/09 05:05:41;;;;;;;3.23;2.23;;;;;;;21.67;40.43;100305.94;4151799;28;20237;-28
2022/08/09 05:07:52;;;;;;;5.83;2.03;;;;;;;22.19;39.71;100294.06;4156364;28;20328;-29
2022/08/09 05:09:54;;;;;;;5.73;2.10;;;;;;;22.18;40.08;100290.50;4157958;28;20240;-28
2022/08/09 05:11:57;;;;;;;2.70;2.07;;;;;;;21.91;40.28;100311.59;4153522;28;20240;-29
2022/08/09 05:14:00;;;;;;;6.40;2.27;;;;;;;21.50;41.23;100307.47;4155171;28;20240;-29
2022/08/09 05:16:07;;;;;;;4.57;2.10;;;;;;;21.03;41.68;100305.03;4151110;28;20237;-30
2022/08/09 05:18:10;;;;;;;3.43;1.90;;;;;;;21.49;41.03;100303.13;4153165;28;20282;-28
2022/08/09 05:20:32;;;;;;;5.73;2.10;;;;;;;22.04;40.16;100303.34;4154470;28;20224;-29
2022/08/09 05:22:35;;;;;;;4.70;2.23;;;;;;;21.87;40.55;100307.66;4156706;28;20857;-30
2022/08/09 05:24:57;;;;;;;5.77;2.17;;;;;;;21.58;41.28;100296.41;4149966;28;20232;-29
2022/08/09 05:27:03;;;;;;;4.17;2.17;;;;;;;22.43;39.89;100311.34;4153748;28;20244;-29
2022/08/09 05:29:05;;;;;;;1.93;1.80;;;;;;;22.09;40.40;100327.06;4153440;28;20268;-28
2022/08/09 05:31:06;;;;;;;8.00;2.43;;;;;;;22.15;40.50;100317.22;4157158;28;20232;-29
2022/08/09 05:33:10;;;;;;;4.13;1.80;;;;;;;22.11;40.34;100322.25;4152386;28;20237;-28
2022/08/09 05:35:13;;;;;;;5.13;2.27;;;;;;;22.34;39.92;100335.22;4155705;28;20280;-29
2022/08/09 05:37:15;;;;;;;4.87;2.03;;;;;;;22.63;39.71;100328.22;4171211;23;20241;-30
2022/08/09 05:39:16;;;;;;;3.37;2.07;;;;;;;22.24;40.14;100348.41;4151710;28;20221;-30
2022/08/09 05:41:29;;;;;;;2.03;1.80;;;;;;;22.34;39.73;100375.84;4147654;28;20235;-30
2022/08/09 05:43:34;;;;;;;3.23;1.90;;;;;;;22.41;40.04;100349.50;4151937;28;20220;-29
2022/08/09 05:45:36;;;;;;;2.53;2.27;;;;;;;22.62;39.79;100348.28;4157995;28;20771;-29
2022/08/09 05:47:53;;;;;;;2.80;2.10;;;;;;;22.12;40.38;100361.84;4146360;28;20236;-29
2022/08/09 05:50:02;;;;;;;3.77;2.00;;;;;;;22.14;40.52;100348.91;4153894;28;20236;-30
2022/08/09 05:52:23;;;;;;;8.03;2.47;;;;;;;22.42;40.27;100347.63;4154383;28;20221;-29
2022/08/09 05:54:25;;;;;;;2.10;1.90;;;;;;;22.65;39.75;100350.50;4151391;28;20230;-30
2022/08/09 05:56:27;;;;;;;9.60;2.30;;;;;;;22.86;39.58;100370.13;4147980;28;20299;-30
2022/08/09 05:58:28;;;;;;;3.63;1.90;;;;;;;23.03;39.27;100359.53;4149578;28;20228;-30
2022/08/09 06:00:31;;;;;;;3.20;1.90;;;;;;;22.71;39.99;100369.63;4156843;28;20747;-30
2022/08/09 06:02:34;;;;;;;4.83;2.17;;;;;;;22.38;40.17;100382.47;4151693;28;20232;-29
2022/08/09 06:04:36;;;;;;;4.50;2.03;;;;;;;23.19;39.26;100358.88;4155608;28;20269;-30
2022/08/09 06:06:45;;;;;;;6.70;2.37;;;;;;;23.44;38.96;100370.69;4152680;28;20323;-30
2022/08/09 06:08:50;;;;;;;9.30;2.60;;;;;;;22.70;39.87;100393.22;4156596;28;20267;-31
2022/08/09 06:10:54;;;;;;;7.03;2.17;;;;;;;22.79;39.88;100375.63;4153310;28;20271;-29
2022/08/09 06:12:58;;;;;;;3.20;1.85;;;;;;;23.45;39.00;100388.63;4156740;28;20318;-30
2022/08/09 06:15:13;;;;;;;4.77;2.53;;;;;;;23.26;39.35;100390.53;4152458;28;20225;-30
2022/08/09 06:17:14;;;;;;;3.72;2.25;;;;;;;23.83;38.81;100377.47;4155734;28;20232;-29
2022/08/09 06:19:16;;;;;;;2.58;1.83;;;;;;;23.85;38.67;100394.34;4154271;28;20308;-29
2022/08/09 06:21:21;;;;;;;2.78;1.80;;;;;;;23.73;38.85;100407.88;4150555;28;20291;-30
2022/08/09 06:23:24;;;;;;;3.97;2.33;;;;;;;23.58;38.96;100399.31;4150921;28;20237;-29
2022/08/09 06:25:45;;;;;;;2.83;1.98;;;;;;;23.57;39.17;100409.38;4147860;28;20237;-29
2022/08/09 06:27:49;;;;;;;4.83;2.37;;;;;;;22.98;39.89;100405.47;4155451;28;21230;-30
2022/08/09 06:29:52;;;;;;;11.03;2.60;;;;;;;23.02;39.78;100403.97;4152116;28;20224;-29
2022/08/09 06:32:05;;;;;;;3.13;1.85;;;;;;;23.33;39.58;100400.25;4155290;28;20231;-30
2022/08/09 06:34:27;;;;;;;5.90;1.87;;;;;;;23.70;39.05;100396.66;4154918;28;20290;-30
2022/08/09 06:36:31;;;;;;;4.53;2.20;;;;;;;23.49;39.62;100409.66;4149760;28;20233;-29
2022/08/09 06:38:33;;;;;;;3.37;2.10;;;;;;;23.00;39.72;100425.06;4151339;28;20237;-31
2022/08/09 06:40:38;;;;;;;6.97;2.17;;;;;;;23.15;39.60;100417.38;4154412;28;20394;-30
2022/08/09 06:42:42;;;;;;;4.17;2.00;;;;;;;24.02;38.43;100415.41;4147789;28;20236;-30
2022/08/09 06:44:47;;;;;;;2.85;1.98;;;;;;;24.26;38.41;100406.28;4153330;28;20243;-29
2022/08/09 06:46:55;;;;;;;3.13;2.08;;;;;;;23.87;38.78;100422.13;4153486;28;20855;-29
2022/08/09 06:48:57;;;;;;;8.13;2.30;;;;;;;23.80;38.73;100436.84;4151721;28;20680;-30
2022/08/09 06:51:01;;;;;;;4.65;2.38;;;;;;;23.15;38.97;100446.41;4150457;28;20236;-30
2022/08/09 06:53:05;;;;;;;3.70;1.90;;;;;;;23.52;38.96;100430.91;4153323;28;20851;-29
2022/08/09 06:55:07;;;;;;;5.88;2.13;;;;;;;24.05;38.48;100428.53;4152896;28;20232;-29
2022/08/09 06:57:13;;;;;;;3.25;2.00;;;;;;;23.75;38.70;100429.38;4155646;28;20302;-30
2022/08/09 06:59:15;;;;;;;4.82;2.47;;;;;;;23.81;38.01;100428.47;4154241;28;20235;-30
2022/08/09 07:01:36;;;;;;;2.33;2.00;;;;;;;23.54;38.24;100434.22;4153992;28;20525;-30
2022/08/09 07:03:58;;;;;;;4.78;2.00;;;;;;;23.74;37.93;100441.31;4155582;28;20247;-29
2022/08/09 07:06:04;;;;;;;3.58;2.10;;;;;;;24.15;37.53;100438.84;4151603;28;20252;-30
2022/08/09 07:08:06;;;;;;;4.28;1.83;;;;;;;23.88;38.23;100439.22;4156415;28;20224;-30
2022/08/09 07:10:09;;;;;;;6.03;2.20;;;;;;;24.21;37.99;100435.19;4158215;28;20225;-30
2022/08/09 07:12:24;;;;;;;5.70;2.05;;;;;;;24.73;37.36;100448.13;4154205;28;20279;-30
2022/08/09 07:14:41;;;;;;;2.95;2.03;;;;;;;24.66;37.69;100446.34;4143080;28;20240;-29
2022/08/09 07:16:43;;;;;;;4.35;2.22;;;;;;;24.74;37.29;100447.09;4156503;28;20236;-30
2022/08/09 07:18:51;;;;;;;4.15;1.90;;;;;;;25.29;36.50;100451.28;4144673;28;20327;-29
2022/08/09 07:20:53;;;;;;;3.22;2.00;;;;;;;24.86;36.84;100469.69;4151364;28;20305;-29
2022/08/09 07:22:56;;;;;;;6.93;2.40;;;;;;;24.82;36.65;100454.94;4150270;28;20270;-30
2022/08/09 07:24:59;;;;;;;5.20;2.10;;;;;;;25.22;36.34;100438.66;4154208;28;20232;-30
2022/08/09 07:27:01;;;;;;;3.42;1.88;;;;;;;24.82;36.86;100454.94;4147312;28;20240;-30
2022/08/09 07:29:04;;;;;;;4.82;2.03;;;;;;;25.34;36.17;100457.69;4150968;28;20240;-30
2022/08/09 07:31:12;;;;;;;4.00;2.05;;;;;;;25.01;36.43;100459.16;4152062;28;20224;-30
2022/08/09 07:33:16;;;;;;;5.72;2.10;;;;;;;25.09;36.61;100460.69;4155580;28;20224;-29
2022/08/09 07:35:18;;;;;;;4.57;1.95;;;;;;;24.88;37.12;100464.84;4155404;28;20224;-30
2022/08/09 07:37:20;;;;;;;4.35;1.75;;;;;;;24.94;36.79;100455.75;4150575;28;20245;-30
2022/08/09 07:39:22;;;;;;;4.15;2.00;;;;;;;24.81;36.72;100472.31;4151839;28;20228;-30
2022/08/09 07:41:42;;;;;;;4.88;1.88;;;;;;;25.25;36.61;100459.13;4151787;28;20237;-30
2022/08/09 07:43:45;;;;;;;4.15;1.88;;;;;;;25.11;36.65;100452.28;4152555;28;20951;-29
2022/08/09 07:45:56;;;;;;;4.60;2.10;;;;;;;25.09;36.74;100468.00;4158253;28;20264;-30
2022/08/09 07:48:04;;;;;;;5.28;2.30;;;;;;;25.32;36.54;100469.88;4154974;28;20252;-30
2022/08/09 07:50:06;;;;;;;5.00;2.28;;;;;;;25.58;36.11;100457.66;4152144;28;20241;-30
2022/08/09 07:52:10;;;;;;;6.88;2.00;;;;;;;25.16;36.55;100477.72;4152070;28;20887;-30
2022/08/09 07:54:18;;;;;;;3.80;1.77;;;;;;;25.66;36.01;100476.34;4153748;28;20252;-29
2022/08/09 07:56:32;;;;;;;6.82;2.00;;;;;;;25.44;36.69;100467.16;4153511;28;20263;-30
2022/08/09 07:58:34;;;;;;;3.70;1.80;;;;;;;25.46;36.57;100465.84;4155637;28;20252;-30
2022/08/09 08:00:36;;;;;;;3.50;2.33;;;;;;;26.28;36.10;100461.13;4154741;28;20296;-30
2022/08/09 08:02:58;;;;;;;4.70;2.00;;;;;;;26.24;36.16;100459.97;4154835;28;20240;-30
2022/08/09 08:05:00;;;;;;;3.42;1.90;;;;;;;25.65;36.60;100480.13;4158680;28;20282;-30
2022/08/09 08:07:03;;;;;;;5.45;1.95;;;;;;;25.76;36.39;100470.25;4154713;28;20258;-30
2022/08/09 08:09:25;;;;;;;6.70;2.17;;;;;;;25.73;36.67;100471.56;4155211;28;20229;-30
2022/08/09 08:11:43;;;;;;;3.03;1.98;;;;;;;26.23;36.25;100459.13;4157430;28;21068;-30
2022/08/09 08:14:05;;;;;;;2.38;1.75;;;;;;;26.13;35.96;100476.16;4151890;28;20274;-30
2022/08/09 08:16:07;;;;;;;3.38;1.90;;;;;;;26.12;36.36;100469.03;4154180;28;20221;-31
2022/08/09 08:18:28;;;;;;;5.50;1.90;;;;;;;26.11;36.62;100467.38;4150258;28;20285;-30
2022/08/09 08:20:31;;;;;;;5.00;2.03;;;;;;;26.20;36.74;100472.44;4151419;28;20663;-30
2022/08/09 08:22:34;;;;;;;2.72;1.90;;;;;;;26.57;35.54;100480.16;4158718;28;20255;-31
2022/08/09 08:24:37;;;;;;;5.32;2.30;;;;;;;26.43;36.36;100472.28;4156015;28;20603;-30
2022/08/09 08:26:41;;;;;;;4.70;2.10;;;;;;;25.60;37.30;100469.94;4152744;28;20237;-30
2022/08/09 08:28:57;;;;;;;13.10;2.28;;;;;;;25.82;37.13;100476.63;4149191;28;20232;-30
2022/08/09 08:31:02;;;;;;;2.92;1.60;;;;;;;26.47;36.50;100462.53;4157188;28;20236;-30
2022/08/09 08:33:15;;;;;;;1.83;1.52;;;;;;;26.54;35.95;100467.88;4159006;28;20229;-30
2022/08/09 08:35:24;;;;;;;3.97;1.92;;;;;;;26.43;35.89;100491.38;4153494;28;20248;-30
2022/08/09 08:37:46;;;;;;;3.47;2.08;;;;;;;26.87;36.28;100468.88;4153380;28;20232;-30
2022/08/09 08:40:06;;;;;;;4.32;1.85;;;;;;;26.98;35.52;100486.25;4159057;28;20265;-30
2022/08/09 08:42:07;;;;;;;5.18;1.80;;;;;;;27.16;35.54;100468.78;4153606;28;20233;-30
2022/08/09 08:44:11;;;;;;;5.85;1.92;;;;;;;26.93;36.03;100481.53;4159138;28;20267;-30
2022/08/09 08:46:16;;;;;;;10.20;2.15;;;;;;;27.59;35.59;100473.41;4148718;28;20229;-30
2022/08/09 08:48:35;;;;;;;3.40;1.92;;;;;;;27.18;35.77;100494.75;4154002;28;20251;-30
2022/08/09 08:50:38;;;;;;;2.85;1.70;;;;;;;26.92;35.51;100488.06;4151315;28;20312;-30
2022/08/09 08:52:40;;;;;;;4.80;2.20;;;;;;;27.51;35.38;100464.84;4153113;28;20721;-30
2022/08/09 08:55:01;;;;;;;2.28;1.85;;;;;;;26.89;36.00;100486.69;4149374;28;20912;-30
2022/08/09 08:57:08;;;;;;;2.55;1.80;;;;;;;27.04;35.96;100487.97;4158194;28;20352;-30
2022/08/09 08:59:13;;;;;;;4.57;2.08;;;;;;;27.76;35.55;100472.53;4157605;28;20728;-30
2022/08/09 09:01:20;;;;;;;2.65;1.90;;;;;;;26.84;36.23;100485.75;4154733;28;20730;-29
2022/08/09 09:03:37;;;;;;;4.00;2.00;;;;;;;27.53;35.56;100482.63;4151250;28;20233;-29
2022/08/09 09:05:39;;;;;;;4.80;1.85;;;;;;;27.85;35.09;100483.81;4156274;28;20259;-30
2022/08/09 09:08:02;;;;;;;3.30;1.92;;;;;;;27.80;34.92;100490.91;4158482;28;20259;-30
2022/08/09 09:10:07;;;;;;;2.55;2.05;;;;;;;27.92;34.97;100485.28;4149219;28;20248;-30
2022/08/09 09:12:10;;;;;;;5.95;2.20;;;;;;;27.79;35.95;100478.31;4156975;28;20323;-30
2022/08/09 09:14:30;;;;;;;5.88;1.98;;;;;;;27.61;35.74;100479.47;4150910;28;20291;-30
2022/08/09 09:16:32;;;;;;;2.10;1.73;;;;;;;27.91;35.37;100489.09;4154237;28;20244;-30
2022/08/09 09:18:36;;;;;;;4.25;1.85;;;;;;;27.50;34.94;100499.53;4152580;28;20229;-30
2022/08/09 09:20:37;;;;;;;3.33;1.70;;;;;;;27.88;35.24;100478.66;4151068;28;20229;-30
2022/08/09 09:22:54;;;;;;;3.38;2.08;;;;;;;27.41;35.74;100482.75;4157804;28;20237;-31
2022/08/09 09:24:56;;;;;;;4.40;1.80;;;;;;;27.61;35.86;100471.28;4155899;28;20235;-30
2022/08/09 09:27:20;;;;;;;3.20;1.80;;;;;;;27.99;35.07;100466.78;4148771;28;20283;-30
2022/08/09 09:29:43;;;;;;;2.47;1.90;;;;;;;28.61;34.30;100458.28;4157942;28;20233;-30
2022/08/09 09:32:06;;;;;;;5.28;1.92;;;;;;;28.81;34.30;100477.59;4148016;28;20237;-30
2022/08/09 09:34:16;;;;;;;4.50;2.05;;;;;;;28.03;34.67;100480.75;4145013;28;20220;-30
2022/08/09 09:36:19;;;;;;;4.28;1.83;;;;;;;28.22;34.98;100478.47;4150109;28;20283;-30
2022/08/09 09:38:37;;;;;;;4.10;2.20;;;;;;;28.86;34.10;100483.09;4156896;28;20229;-30
2022/08/09 09:40:43;;;;;;;3.75;1.70;;;;;;;28.29;34.95;100481.00;4152726;28;20241;-30
2022/08/09 09:42:56;;;;;;;5.93;2.45;;;;;;;28.42;34.91;100479.75;4150611;28;20301;-30
2022/08/09 09:45:05;;;;;;;6.70;2.15;;;;;;;28.00;35.24;100486.72;4153769;28;20232;-30
2022/08/09 09:47:15;;;;;;;2.30;1.92;;;;;;;28.52;34.58;100472.44;4149720;28;20316;-30
2022/08/09 09:49:23;;;;;;;13.98;2.33;;;;;;;28.09;34.49;100495.28;4152676;28;20225;-30
2022/08/09 09:51:45;;;;;;;6.68;2.13;;;;;;;28.62;34.20;100479.91;4152525;28;20664;-31
2022/08/09 09:54:02;;;;;;;2.95;1.85;;;;;;;28.30;34.57;100480.75;4153666;28;20302;-30
2022/08/09 09:56:17;;;;;;;6.07;2.10;;;;;;;28.93;34.11;100477.38;4152096;28;20792;-30
2022/08/09 09:58:46;;;;;;;4.13;1.65;;;;;;;29.10;33.83;100469.84;4153443;28;20845;-31